sensor_id;sensor_type;location;lat;lon;timestamp;P1;durP1;ratioP1;P2;durP2;ratioP2
48613;SDS011;34408;51.426;5.444;2024-03-08T00:00:13;27.38;;;16.23;;
48613;SDS011;34408;51.426;5.444;2024-03-08T00:02:47;26.52;;;16.00;;
48613;SDS011;34408;51.426;5.444;2024-03-08T00:05:17;27.05;;;16.27;;
48613;SDS011;34408;51.426;5.444;2024-03-08T00:07:45;28.77;;;16.13;;
48613;SDS011;34408;51.426;5.444;2024-03-08T00:10:14;26.05;;;15.65;;
48613;SDS011;34408;51.426;5.444;2024-03-08T00:12:44;25.10;;;15.50;;
48613;SDS011;34408;51.426;5.444;2024-03-08T00:15:13;26.35;;;15.32;;
48613;SDS011;34408;51.426;5.444;2024-03-08T00:17:45;26.77;;;15.90;;
48613;SDS011;34408;51.426;5.444;2024-03-08T00:20:16;27.00;;;15.70;;
48613;SDS011;34408;51.426;5.444;2024-03-08T00:22:46;27.88;;;14.65;;
48613;SDS011;34408;51.426;5.444;2024-03-08T00:25:14;26.13;;;14.65;;
48613;SDS011;34408;51.426;5.444;2024-03-08T00:27:43;25.98;;;15.45;;
48613;SDS011;34408;51.426;5.444;2024-03-08T00:30:11;25.05;;;15.20;;
48613;SDS011;34408;51.426;5.444;2024-03-08T00:32:40;28.98;;;15.70;;
48613;SDS011;34408;51.426;5.444;2024-03-08T00:35:09;25.80;;;14.90;;
48613;SDS011;34408;51.426;5.444;2024-03-08T00:37:40;26.05;;;14.15;;
48613;SDS011;34408;51.426;5.444;2024-03-08T00:40:09;22.10;;;14.65;;
48613;SDS011;34408;51.426;5.444;2024-03-08T00:42:37;25.05;;;15.27;;
48613;SDS011;34408;51.426;5.444;2024-03-08T00:45:06;30.27;;;16.63;;
48613;SDS011;34408;51.426;5.444;2024-03-08T00:47:37;25.70;;;14.40;;
48613;SDS011;34408;51.426;5.444;2024-03-08T00:50:06;24.10;;;14.77;;
48613;SDS011;34408;51.426;5.444;2024-03-08T00:52:35;26.67;;;15.35;;
48613;SDS011;34408;51.426;5.444;2024-03-08T00:55:05;25.42;;;14.13;;
48613;SDS011;34408;51.426;5.444;2024-03-08T00:57:34;29.80;;;15.57;;
48613;SDS011;34408;51.426;5.444;2024-03-08T01:00:02;26.30;;;14.88;;
48613;SDS011;34408;51.426;5.444;2024-03-08T01:02:32;24.00;;;13.82;;
48613;SDS011;34408;51.426;5.444;2024-03-08T01:05:02;24.40;;;14.80;;
48613;SDS011;34408;51.426;5.444;2024-03-08T01:07:33;23.30;;;14.00;;
48613;SDS011;34408;51.426;5.444;2024-03-08T01:10:02;26.25;;;14.43;;
48613;SDS011;34408;51.426;5.444;2024-03-08T01:12:31;23.30;;;14.98;;
48613;SDS011;34408;51.426;5.444;2024-03-08T01:14:59;27.20;;;15.10;;
48613;SDS011;34408;51.426;5.444;2024-03-08T01:17:27;24.05;;;14.07;;
48613;SDS011;34408;51.426;5.444;2024-03-08T01:19:55;28.90;;;14.48;;
48613;SDS011;34408;51.426;5.444;2024-03-08T01:22:24;23.77;;;14.93;;
48613;SDS011;34408;51.426;5.444;2024-03-08T01:24:54;23.33;;;13.25;;
48613;SDS011;34408;51.426;5.444;2024-03-08T01:27:22;24.25;;;15.02;;
48613;SDS011;34408;51.426;5.444;2024-03-08T01:29:52;23.33;;;14.18;;
48613;SDS011;34408;51.426;5.444;2024-03-08T01:32:20;24.33;;;14.77;;
48613;SDS011;34408;51.426;5.444;2024-03-08T01:34:49;25.90;;;15.27;;
48613;SDS011;34408;51.426;5.444;2024-03-08T01:37:17;24.52;;;14.45;;
48613;SDS011;34408;51.426;5.444;2024-03-08T01:39:45;23.92;;;15.35;;
48613;SDS011;34408;51.426;5.444;2024-03-08T01:42:13;25.55;;;15.18;;
48613;SDS011;34408;51.426;5.444;2024-03-08T01:44:44;27.55;;;14.40;;
48613;SDS011;34408;51.426;5.444;2024-03-08T01:47:13;23.83;;;14.43;;
48613;SDS011;34408;51.426;5.444;2024-03-08T01:49:41;22.48;;;14.15;;
48613;SDS011;34408;51.426;5.444;2024-03-08T01:52:10;24.13;;;13.93;;
48613;SDS011;34408;51.426;5.444;2024-03-08T01:54:38;19.55;;;13.30;;
48613;SDS011;34408;51.426;5.444;2024-03-08T01:57:07;23.23;;;14.18;;
48613;SDS011;34408;51.426;5.444;2024-03-08T01:59:36;24.38;;;14.40;;
48613;SDS011;34408;51.426;5.444;2024-03-08T02:02:04;23.85;;;13.77;;
48613;SDS011;34408;51.426;5.444;2024-03-08T02:04:36;26.88;;;15.73;;
48613;SDS011;34408;51.426;5.444;2024-03-08T02:07:05;25.63;;;13.38;;
48613;SDS011;34408;51.426;5.444;2024-03-08T02:09:36;23.73;;;13.55;;
48613;SDS011;34408;51.426;5.444;2024-03-08T02:12:04;20.52;;;12.80;;
48613;SDS011;34408;51.426;5.444;2024-03-08T02:14:33;21.35;;;13.60;;
48613;SDS011;34408;51.426;5.444;2024-03-08T02:17:01;22.00;;;13.63;;
48613;SDS011;34408;51.426;5.444;2024-03-08T02:19:31;22.60;;;14.57;;
48613;SDS011;34408;51.426;5.444;2024-03-08T02:22:00;22.33;;;14.05;;
48613;SDS011;34408;51.426;5.444;2024-03-08T02:24:31;22.35;;;12.93;;
48613;SDS011;34408;51.426;5.444;2024-03-08T02:26:59;25.77;;;14.77;;
48613;SDS011;34408;51.426;5.444;2024-03-08T02:29:27;23.10;;;13.98;;
48613;SDS011;34408;51.426;5.444;2024-03-08T02:31:56;23.48;;;14.70;;
48613;SDS011;34408;51.426;5.444;2024-03-08T02:34:24;20.65;;;14.05;;
48613;SDS011;34408;51.426;5.444;2024-03-08T02:36:52;22.80;;;13.82;;
48613;SDS011;34408;51.426;5.444;2024-03-08T02:39:21;20.83;;;12.05;;
48613;SDS011;34408;51.426;5.444;2024-03-08T02:41:49;23.08;;;14.15;;
48613;SDS011;34408;51.426;5.444;2024-03-08T02:44:17;21.23;;;14.52;;
48613;SDS011;34408;51.426;5.444;2024-03-08T02:46:48;23.17;;;13.00;;
48613;SDS011;34408;51.426;5.444;2024-03-08T02:49:17;21.00;;;13.30;;
48613;SDS011;34408;51.426;5.444;2024-03-08T02:51:44;20.30;;;13.73;;
48613;SDS011;34408;51.426;5.444;2024-03-08T02:54:13;21.98;;;14.25;;
48613;SDS011;34408;51.426;5.444;2024-03-08T02:56:42;19.45;;;13.40;;
48613;SDS011;34408;51.426;5.444;2024-03-08T02:59:10;20.55;;;13.25;;
48613;SDS011;34408;51.426;5.444;2024-03-08T03:01:39;19.50;;;12.80;;
48613;SDS011;34408;51.426;5.444;2024-03-08T03:04:07;20.92;;;13.23;;
48613;SDS011;34408;51.426;5.444;2024-03-08T03:06:35;21.90;;;13.75;;
48613;SDS011;34408;51.426;5.444;2024-03-08T03:09:04;21.85;;;14.15;;
48613;SDS011;34408;51.426;5.444;2024-03-08T03:11:32;19.70;;;13.38;;
48613;SDS011;34408;51.426;5.444;2024-03-08T03:14:02;20.67;;;13.50;;
48613;SDS011;34408;51.426;5.444;2024-03-08T03:16:30;22.42;;;13.20;;
48613;SDS011;34408;51.426;5.444;2024-03-08T03:18:59;19.23;;;13.02;;
48613;SDS011;34408;51.426;5.444;2024-03-08T03:21:28;19.73;;;13.32;;
48613;SDS011;34408;51.426;5.444;2024-03-08T03:23:58;21.15;;;12.77;;
48613;SDS011;34408;51.426;5.444;2024-03-08T03:26:26;23.23;;;15.15;;
48613;SDS011;34408;51.426;5.444;2024-03-08T03:28:54;20.25;;;13.43;;
48613;SDS011;34408;51.426;5.444;2024-03-08T03:31:25;25.00;;;13.52;;
48613;SDS011;34408;51.426;5.444;2024-03-08T03:33:53;19.48;;;13.10;;
48613;SDS011;34408;51.426;5.444;2024-03-08T03:36:21;17.67;;;12.85;;
48613;SDS011;34408;51.426;5.444;2024-03-08T03:38:48;19.80;;;13.57;;
48613;SDS011;34408;51.426;5.444;2024-03-08T03:41:18;19.83;;;14.13;;
48613;SDS011;34408;51.426;5.444;2024-03-08T03:43:46;20.15;;;13.57;;
48613;SDS011;34408;51.426;5.444;2024-03-08T03:46:15;20.63;;;13.73;;
48613;SDS011;34408;51.426;5.444;2024-03-08T03:48:45;20.98;;;13.65;;
48613;SDS011;34408;51.426;5.444;2024-03-08T03:51:13;20.13;;;13.48;;
48613;SDS011;34408;51.426;5.444;2024-03-08T03:53:42;24.80;;;14.23;;
48613;SDS011;34408;51.426;5.444;2024-03-08T03:56:10;19.25;;;12.93;;
48613;SDS011;34408;51.426;5.444;2024-03-08T03:58:38;25.20;;;14.48;;
48613;SDS011;34408;51.426;5.444;2024-03-08T04:01:06;18.92;;;13.02;;
48613;SDS011;34408;51.426;5.444;2024-03-08T04:03:34;21.67;;;13.18;;
48613;SDS011;34408;51.426;5.444;2024-03-08T04:06:04;22.52;;;13.70;;
48613;SDS011;34408;51.426;5.444;2024-03-08T04:08:32;20.10;;;13.55;;
48613;SDS011;34408;51.426;5.444;2024-03-08T04:11:00;20.88;;;14.00;;
48613;SDS011;34408;51.426;5.444;2024-03-08T04:13:29;24.17;;;14.75;;
48613;SDS011;34408;51.426;5.444;2024-03-08T04:15:57;18.75;;;12.55;;
48613;SDS011;34408;51.426;5.444;2024-03-08T04:18:25;19.88;;;13.65;;
48613;SDS011;34408;51.426;5.444;2024-03-08T04:20:53;21.05;;;13.73;;
48613;SDS011;34408;51.426;5.444;2024-03-08T04:23:23;20.08;;;13.63;;
48613;SDS011;34408;51.426;5.444;2024-03-08T04:25:51;22.95;;;13.02;;
48613;SDS011;34408;51.426;5.444;2024-03-08T04:28:19;21.63;;;13.90;;
48613;SDS011;34408;51.426;5.444;2024-03-08T04:30:47;21.92;;;14.98;;
48613;SDS011;34408;51.426;5.444;2024-03-08T04:33:15;22.83;;;14.02;;
48613;SDS011;34408;51.426;5.444;2024-03-08T04:35:45;21.83;;;13.05;;
48613;SDS011;34408;51.426;5.444;2024-03-08T04:38:13;19.35;;;13.32;;
48613;SDS011;34408;51.426;5.444;2024-03-08T04:40:43;21.13;;;14.18;;
48613;SDS011;34408;51.426;5.444;2024-03-08T04:43:11;19.35;;;13.00;;
48613;SDS011;34408;51.426;5.444;2024-03-08T04:45:40;20.17;;;13.32;;
48613;SDS011;34408;51.426;5.444;2024-03-08T04:48:10;18.83;;;12.93;;
48613;SDS011;34408;51.426;5.444;2024-03-08T04:50:38;22.20;;;14.25;;
48613;SDS011;34408;51.426;5.444;2024-03-08T04:53:06;16.80;;;12.43;;
48613;SDS011;34408;51.426;5.444;2024-03-08T04:55:35;22.13;;;13.75;;
48613;SDS011;34408;51.426;5.444;2024-03-08T04:58:05;20.10;;;13.82;;
48613;SDS011;34408;51.426;5.444;2024-03-08T05:00:33;20.75;;;13.60;;
48613;SDS011;34408;51.426;5.444;2024-03-08T05:03:01;21.50;;;14.50;;
48613;SDS011;34408;51.426;5.444;2024-03-08T05:05:31;21.63;;;13.50;;
48613;SDS011;34408;51.426;5.444;2024-03-08T05:07:59;22.73;;;13.27;;
48613;SDS011;34408;51.426;5.444;2024-03-08T05:10:29;22.35;;;14.45;;
48613;SDS011;34408;51.426;5.444;2024-03-08T05:12:57;20.08;;;14.27;;
48613;SDS011;34408;51.426;5.444;2024-03-08T05:15:26;23.50;;;13.70;;
48613;SDS011;34408;51.426;5.444;2024-03-08T05:17:54;22.42;;;14.57;;
48613;SDS011;34408;51.426;5.444;2024-03-08T05:20:24;18.63;;;13.38;;
48613;SDS011;34408;51.426;5.444;2024-03-08T05:22:52;19.15;;;14.30;;
48613;SDS011;34408;51.426;5.444;2024-03-08T05:25:20;20.27;;;14.32;;
48613;SDS011;34408;51.426;5.444;2024-03-08T05:27:48;20.40;;;14.57;;
48613;SDS011;34408;51.426;5.444;2024-03-08T05:30:16;20.00;;;13.73;;
48613;SDS011;34408;51.426;5.444;2024-03-08T05:32:46;19.33;;;13.52;;
48613;SDS011;34408;51.426;5.444;2024-03-08T05:35:14;22.10;;;13.98;;
48613;SDS011;34408;51.426;5.444;2024-03-08T05:37:43;24.33;;;15.00;;
48613;SDS011;34408;51.426;5.444;2024-03-08T05:40:11;22.92;;;14.35;;
48613;SDS011;34408;51.426;5.444;2024-03-08T05:42:44;22.05;;;15.20;;
48613;SDS011;34408;51.426;5.444;2024-03-08T05:45:12;22.40;;;14.68;;
48613;SDS011;34408;51.426;5.444;2024-03-08T05:47:41;22.17;;;14.45;;
48613;SDS011;34408;51.426;5.444;2024-03-08T05:50:11;20.10;;;12.77;;
48613;SDS011;34408;51.426;5.444;2024-03-08T05:52:39;22.17;;;14.07;;
48613;SDS011;34408;51.426;5.444;2024-03-08T05:55:07;21.05;;;13.52;;
48613;SDS011;34408;51.426;5.444;2024-03-08T05:57:36;22.95;;;14.88;;
48613;SDS011;34408;51.426;5.444;2024-03-08T06:00:07;22.23;;;15.23;;
48613;SDS011;34408;51.426;5.444;2024-03-08T06:02:37;26.70;;;15.43;;
48613;SDS011;34408;51.426;5.444;2024-03-08T06:05:08;22.17;;;14.75;;
48613;SDS011;34408;51.426;5.444;2024-03-08T06:07:38;23.08;;;15.13;;
48613;SDS011;34408;51.426;5.444;2024-03-08T06:10:08;20.27;;;14.82;;
48613;SDS011;34408;51.426;5.444;2024-03-08T06:12:39;24.15;;;13.82;;
48613;SDS011;34408;51.426;5.444;2024-03-08T06:15:08;21.05;;;14.23;;
48613;SDS011;34408;51.426;5.444;2024-03-08T06:17:41;20.13;;;14.55;;
48613;SDS011;34408;51.426;5.444;2024-03-08T06:20:11;20.95;;;14.27;;
48613;SDS011;34408;51.426;5.444;2024-03-08T06:22:40;28.45;;;15.95;;
48613;SDS011;34408;51.426;5.444;2024-03-08T06:25:08;24.85;;;14.85;;
48613;SDS011;34408;51.426;5.444;2024-03-08T06:27:37;22.15;;;15.55;;
48613;SDS011;34408;51.426;5.444;2024-03-08T06:30:06;22.95;;;14.35;;
48613;SDS011;34408;51.426;5.444;2024-03-08T06:32:36;23.48;;;15.15;;
48613;SDS011;34408;51.426;5.444;2024-03-08T06:35:05;22.17;;;15.57;;
48613;SDS011;34408;51.426;5.444;2024-03-08T06:37:35;22.45;;;14.77;;
48613;SDS011;34408;51.426;5.444;2024-03-08T06:40:03;22.52;;;15.10;;
48613;SDS011;34408;51.426;5.444;2024-03-08T06:42:34;23.52;;;15.05;;
48613;SDS011;34408;51.426;5.444;2024-03-08T06:45:02;22.25;;;15.00;;
48613;SDS011;34408;51.426;5.444;2024-03-08T06:47:32;24.48;;;15.80;;
48613;SDS011;34408;51.426;5.444;2024-03-08T06:50:01;25.52;;;15.93;;
48613;SDS011;34408;51.426;5.444;2024-03-08T06:52:29;22.30;;;14.50;;
48613;SDS011;34408;51.426;5.444;2024-03-08T06:54:58;25.30;;;14.15;;
48613;SDS011;34408;51.426;5.444;2024-03-08T06:57:28;20.40;;;14.73;;
48613;SDS011;34408;51.426;5.444;2024-03-08T06:59:57;22.25;;;14.55;;
48613;SDS011;34408;51.426;5.444;2024-03-08T07:02:25;23.23;;;14.77;;
48613;SDS011;34408;51.426;5.444;2024-03-08T07:04:54;22.65;;;14.82;;
48613;SDS011;34408;51.426;5.444;2024-03-08T07:07:22;22.13;;;15.18;;
48613;SDS011;34408;51.426;5.444;2024-03-08T07:09:50;23.15;;;15.57;;
48613;SDS011;34408;51.426;5.444;2024-03-08T07:12:20;30.98;;;16.33;;
48613;SDS011;34408;51.426;5.444;2024-03-08T07:14:49;25.60;;;15.75;;
48613;SDS011;34408;51.426;5.444;2024-03-08T07:17:17;30.95;;;16.30;;
48613;SDS011;34408;51.426;5.444;2024-03-08T07:19:45;24.25;;;16.00;;
48613;SDS011;34408;51.426;5.444;2024-03-08T07:22:13;28.98;;;16.52;;
48613;SDS011;34408;51.426;5.444;2024-03-08T07:24:41;26.73;;;16.17;;
48613;SDS011;34408;51.426;5.444;2024-03-08T07:27:32;24.92;;;15.40;;
48613;SDS011;34408;51.426;5.444;2024-03-08T07:30:00;29.48;;;15.88;;
48613;SDS011;34408;51.426;5.444;2024-03-08T07:32:31;28.50;;;17.00;;
48613;SDS011;34408;51.426;5.444;2024-03-08T07:35:01;27.67;;;16.50;;
48613;SDS011;34408;51.426;5.444;2024-03-08T07:37:30;26.80;;;16.02;;
48613;SDS011;34408;51.426;5.444;2024-03-08T07:39:58;24.08;;;16.13;;
48613;SDS011;34408;51.426;5.444;2024-03-08T07:42:27;24.17;;;15.68;;
48613;SDS011;34408;51.426;5.444;2024-03-08T07:44:57;26.30;;;16.27;;
48613;SDS011;34408;51.426;5.444;2024-03-08T07:47:26;24.50;;;15.65;;
48613;SDS011;34408;51.426;5.444;2024-03-08T07:49:54;24.50;;;16.35;;
48613;SDS011;34408;51.426;5.444;2024-03-08T07:52:24;25.35;;;16.40;;
48613;SDS011;34408;51.426;5.444;2024-03-08T07:54:52;22.70;;;15.23;;
48613;SDS011;34408;51.426;5.444;2024-03-08T07:57:21;23.27;;;16.08;;
48613;SDS011;34408;51.426;5.444;2024-03-08T07:59:49;21.65;;;14.98;;
48613;SDS011;34408;51.426;5.444;2024-03-08T08:02:18;23.08;;;15.00;;
48613;SDS011;34408;51.426;5.444;2024-03-08T08:04:46;21.25;;;13.80;;
48613;SDS011;34408;51.426;5.444;2024-03-08T08:07:14;23.10;;;15.55;;
48613;SDS011;34408;51.426;5.444;2024-03-08T08:09:42;22.67;;;14.95;;
48613;SDS011;34408;51.426;5.444;2024-03-08T08:12:10;25.02;;;16.40;;
48613;SDS011;34408;51.426;5.444;2024-03-08T08:14:39;24.73;;;15.02;;
48613;SDS011;34408;51.426;5.444;2024-03-08T08:17:07;24.23;;;16.08;;
48613;SDS011;34408;51.426;5.444;2024-03-08T08:19:37;30.70;;;15.75;;
48613;SDS011;34408;51.426;5.444;2024-03-08T08:22:06;23.83;;;14.65;;
48613;SDS011;34408;51.426;5.444;2024-03-08T08:24:35;22.98;;;15.90;;
48613;SDS011;34408;51.426;5.444;2024-03-08T08:27:04;27.38;;;16.55;;
48613;SDS011;34408;51.426;5.444;2024-03-08T08:29:33;22.45;;;15.45;;
48613;SDS011;34408;51.426;5.444;2024-03-08T08:32:02;23.88;;;14.82;;
48613;SDS011;34408;51.426;5.444;2024-03-08T08:34:30;22.20;;;14.18;;
48613;SDS011;34408;51.426;5.444;2024-03-08T08:36:59;23.50;;;14.73;;
48613;SDS011;34408;51.426;5.444;2024-03-08T08:39:28;22.30;;;15.05;;
48613;SDS011;34408;51.426;5.444;2024-03-08T08:41:56;21.77;;;14.43;;
48613;SDS011;34408;51.426;5.444;2024-03-08T08:44:24;23.58;;;15.50;;
48613;SDS011;34408;51.426;5.444;2024-03-08T08:46:53;22.25;;;15.30;;
48613;SDS011;34408;51.426;5.444;2024-03-08T08:49:31;26.58;;;15.57;;
48613;SDS011;34408;51.426;5.444;2024-03-08T08:52:00;23.60;;;15.43;;
48613;SDS011;34408;51.426;5.444;2024-03-08T08:54:41;25.50;;;15.02;;
48613;SDS011;34408;51.426;5.444;2024-03-08T08:57:15;22.60;;;15.20;;
48613;SDS011;34408;51.426;5.444;2024-03-08T08:59:43;21.65;;;14.48;;
48613;SDS011;34408;51.426;5.444;2024-03-08T09:02:12;25.30;;;15.60;;
48613;SDS011;34408;51.426;5.444;2024-03-08T09:04:44;22.17;;;14.60;;
48613;SDS011;34408;51.426;5.444;2024-03-08T09:07:13;23.63;;;14.52;;
48613;SDS011;34408;51.426;5.444;2024-03-08T09:09:41;21.98;;;14.93;;
48613;SDS011;34408;51.426;5.444;2024-03-08T09:12:10;25.02;;;15.70;;
48613;SDS011;34408;51.426;5.444;2024-03-08T09:14:39;22.08;;;14.88;;
48613;SDS011;34408;51.426;5.444;2024-03-08T09:17:08;23.25;;;13.98;;
48613;SDS011;34408;51.426;5.444;2024-03-08T09:19:36;22.33;;;14.52;;
48613;SDS011;34408;51.426;5.444;2024-03-08T09:22:04;22.70;;;14.63;;
48613;SDS011;34408;51.426;5.444;2024-03-08T09:24:33;25.88;;;15.35;;
48613;SDS011;34408;51.426;5.444;2024-03-08T09:27:01;22.90;;;14.13;;
48613;SDS011;34408;51.426;5.444;2024-03-08T09:29:29;18.65;;;13.38;;
48613;SDS011;34408;51.426;5.444;2024-03-08T09:31:57;21.67;;;14.15;;
48613;SDS011;34408;51.426;5.444;2024-03-08T09:34:25;23.15;;;15.68;;
48613;SDS011;34408;51.426;5.444;2024-03-08T09:37:03;24.80;;;13.68;;
48613;SDS011;34408;51.426;5.444;2024-03-08T09:39:31;23.92;;;15.00;;
48613;SDS011;34408;51.426;5.444;2024-03-08T09:42:01;25.95;;;15.05;;
48613;SDS011;34408;51.426;5.444;2024-03-08T09:44:29;26.30;;;15.45;;
48613;SDS011;34408;51.426;5.444;2024-03-08T09:46:58;23.25;;;14.40;;
48613;SDS011;34408;51.426;5.444;2024-03-08T09:49:28;24.38;;;14.77;;
48613;SDS011;34408;51.426;5.444;2024-03-08T09:51:56;24.55;;;15.30;;
48613;SDS011;34408;51.426;5.444;2024-03-08T09:54:25;22.42;;;13.73;;
48613;SDS011;34408;51.426;5.444;2024-03-08T09:56:53;23.63;;;14.05;;
48613;SDS011;34408;51.426;5.444;2024-03-08T09:59:23;21.08;;;14.00;;
48613;SDS011;34408;51.426;5.444;2024-03-08T10:02:12;24.52;;;13.88;;
48613;SDS011;34408;51.426;5.444;2024-03-08T10:04:43;22.23;;;14.15;;
48613;SDS011;34408;51.426;5.444;2024-03-08T10:07:13;18.92;;;13.25;;
48613;SDS011;34408;51.426;5.444;2024-03-08T10:09:42;20.77;;;13.20;;
48613;SDS011;34408;51.426;5.444;2024-03-08T10:12:16;23.23;;;14.48;;
48613;SDS011;34408;51.426;5.444;2024-03-08T10:14:47;21.33;;;13.07;;
48613;SDS011;34408;51.426;5.444;2024-03-08T10:17:15;21.88;;;14.40;;
48613;SDS011;34408;51.426;5.444;2024-03-08T10:19:49;20.50;;;13.05;;
48613;SDS011;34408;51.426;5.444;2024-03-08T10:22:19;19.92;;;13.20;;
48613;SDS011;34408;51.426;5.444;2024-03-08T10:24:47;20.05;;;12.55;;
48613;SDS011;34408;51.426;5.444;2024-03-08T10:27:16;20.25;;;13.05;;
48613;SDS011;34408;51.426;5.444;2024-03-08T10:29:47;19.25;;;12.95;;
48613;SDS011;34408;51.426;5.444;2024-03-08T10:32:18;20.70;;;13.82;;
48613;SDS011;34408;51.426;5.444;2024-03-08T10:34:46;20.48;;;13.93;;
48613;SDS011;34408;51.426;5.444;2024-03-08T10:37:16;18.20;;;12.23;;
48613;SDS011;34408;51.426;5.444;2024-03-08T10:39:52;22.85;;;13.48;;
48613;SDS011;34408;51.426;5.444;2024-03-08T10:42:38;22.17;;;13.40;;
48613;SDS011;34408;51.426;5.444;2024-03-08T10:45:13;18.40;;;12.40;;
48613;SDS011;34408;51.426;5.444;2024-03-08T10:47:48;17.73;;;12.73;;
48613;SDS011;34408;51.426;5.444;2024-03-08T10:50:18;18.88;;;12.82;;
48613;SDS011;34408;51.426;5.444;2024-03-08T10:52:48;21.98;;;12.55;;
48613;SDS011;34408;51.426;5.444;2024-03-08T10:55:18;18.00;;;11.23;;
48613;SDS011;34408;51.426;5.444;2024-03-08T10:57:47;18.33;;;12.55;;
48613;SDS011;34408;51.426;5.444;2024-03-08T11:00:17;18.17;;;11.18;;
48613;SDS011;34408;51.426;5.444;2024-03-08T11:02:52;16.55;;;11.82;;
48613;SDS011;34408;51.426;5.444;2024-03-08T11:05:31;17.55;;;11.50;;
48613;SDS011;34408;51.426;5.444;2024-03-08T11:08:02;16.40;;;11.50;;
48613;SDS011;34408;51.426;5.444;2024-03-08T11:10:31;17.63;;;11.30;;
48613;SDS011;34408;51.426;5.444;2024-03-08T11:12:59;16.65;;;11.18;;
48613;SDS011;34408;51.426;5.444;2024-03-08T11:15:29;18.65;;;11.02;;
48613;SDS011;34408;51.426;5.444;2024-03-08T11:17:58;18.67;;;9.65;;
48613;SDS011;34408;51.426;5.444;2024-03-08T11:20:27;18.48;;;10.05;;
48613;SDS011;34408;51.426;5.444;2024-03-08T11:23:00;16.58;;;11.00;;
48613;SDS011;34408;51.426;5.444;2024-03-08T11:25:36;20.42;;;10.50;;
48613;SDS011;34408;51.426;5.444;2024-03-08T11:28:11;20.38;;;10.40;;
48613;SDS011;34408;51.426;5.444;2024-03-08T11:30:46;13.60;;;9.73;;
48613;SDS011;34408;51.426;5.444;2024-03-08T11:33:39;16.05;;;10.40;;
48613;SDS011;34408;51.426;5.444;2024-03-08T11:36:10;14.30;;;8.80;;
48613;SDS011;34408;51.426;5.444;2024-03-08T11:38:42;13.88;;;8.77;;
48613;SDS011;34408;51.426;5.444;2024-03-08T11:41:15;13.00;;;9.18;;
48613;SDS011;34408;51.426;5.444;2024-03-08T11:43:46;14.48;;;8.98;;
48613;SDS011;34408;51.426;5.444;2024-03-08T11:46:15;14.00;;;9.82;;
48613;SDS011;34408;51.426;5.444;2024-03-08T11:48:47;15.38;;;9.80;;
48613;SDS011;34408;51.426;5.444;2024-03-08T11:51:15;14.65;;;9.30;;
48613;SDS011;34408;51.426;5.444;2024-03-08T11:53:45;14.55;;;9.30;;
48613;SDS011;34408;51.426;5.444;2024-03-08T11:56:14;13.20;;;9.40;;
48613;SDS011;34408;51.426;5.444;2024-03-08T11:58:51;13.13;;;8.98;;
48613;SDS011;34408;51.426;5.444;2024-03-08T12:01:24;13.35;;;9.23;;
48613;SDS011;34408;51.426;5.444;2024-03-08T12:03:54;12.93;;;9.23;;
48613;SDS011;34408;51.426;5.444;2024-03-08T12:06:25;14.75;;;9.07;;
48613;SDS011;34408;51.426;5.444;2024-03-08T12:08:53;13.73;;;9.27;;
48613;SDS011;34408;51.426;5.444;2024-03-08T12:11:21;14.38;;;9.13;;
48613;SDS011;34408;51.426;5.444;2024-03-08T12:13:51;13.55;;;9.02;;
48613;SDS011;34408;51.426;5.444;2024-03-08T12:16:20;14.05;;;8.95;;
48613;SDS011;34408;51.426;5.444;2024-03-08T12:18:50;15.48;;;9.57;;
48613;SDS011;34408;51.426;5.444;2024-03-08T12:21:21;13.68;;;8.70;;
48613;SDS011;34408;51.426;5.444;2024-03-08T12:24:01;13.07;;;9.45;;
48613;SDS011;34408;51.426;5.444;2024-03-08T12:26:31;15.68;;;8.75;;
48613;SDS011;34408;51.426;5.444;2024-03-08T12:29:14;13.52;;;9.20;;
48613;SDS011;34408;51.426;5.444;2024-03-08T12:31:44;14.05;;;8.30;;
48613;SDS011;34408;51.426;5.444;2024-03-08T12:34:13;13.52;;;8.38;;
48613;SDS011;34408;51.426;5.444;2024-03-08T12:36:46;14.48;;;9.15;;
48613;SDS011;34408;51.426;5.444;2024-03-08T12:39:18;15.57;;;9.27;;
48613;SDS011;34408;51.426;5.444;2024-03-08T12:41:49;11.98;;;8.45;;
48613;SDS011;34408;51.426;5.444;2024-03-08T12:44:18;12.38;;;8.52;;
48613;SDS011;34408;51.426;5.444;2024-03-08T12:46:48;14.25;;;9.23;;
48613;SDS011;34408;51.426;5.444;2024-03-08T12:49:19;15.27;;;8.85;;
48613;SDS011;34408;51.426;5.444;2024-03-08T12:51:50;15.45;;;9.55;;
48613;SDS011;34408;51.426;5.444;2024-03-08T12:54:19;12.85;;;7.97;;
48613;SDS011;34408;51.426;5.444;2024-03-08T12:56:50;14.27;;;8.57;;
48613;SDS011;34408;51.426;5.444;2024-03-08T12:59:21;13.60;;;8.30;;
48613;SDS011;34408;51.426;5.444;2024-03-08T13:01:50;13.45;;;8.43;;
48613;SDS011;34408;51.426;5.444;2024-03-08T13:04:20;14.65;;;8.73;;
48613;SDS011;34408;51.426;5.444;2024-03-08T13:06:48;13.60;;;8.63;;
48613;SDS011;34408;51.426;5.444;2024-03-08T13:09:21;16.70;;;9.35;;
48613;SDS011;34408;51.426;5.444;2024-03-08T13:11:50;16.13;;;8.52;;
48613;SDS011;34408;51.426;5.444;2024-03-08T13:14:20;13.68;;;9.02;;
48613;SDS011;34408;51.426;5.444;2024-03-08T13:16:48;14.13;;;9.45;;
48613;SDS011;34408;51.426;5.444;2024-03-08T13:19:17;14.13;;;8.32;;
48613;SDS011;34408;51.426;5.444;2024-03-08T13:21:48;11.88;;;8.30;;
48613;SDS011;34408;51.426;5.444;2024-03-08T13:24:18;13.68;;;8.25;;
48613;SDS011;34408;51.426;5.444;2024-03-08T13:26:47;20.58;;;9.20;;
48613;SDS011;34408;51.426;5.444;2024-03-08T13:29:16;18.63;;;10.13;;
48613;SDS011;34408;51.426;5.444;2024-03-08T13:31:45;16.90;;;9.13;;
48613;SDS011;34408;51.426;5.444;2024-03-08T13:34:15;12.25;;;8.25;;
48613;SDS011;34408;51.426;5.444;2024-03-08T13:36:43;11.65;;;8.30;;
48613;SDS011;34408;51.426;5.444;2024-03-08T13:39:12;14.90;;;8.60;;
48613;SDS011;34408;51.426;5.444;2024-03-08T13:41:44;16.55;;;9.25;;
48613;SDS011;34408;51.426;5.444;2024-03-08T13:44:12;11.93;;;8.55;;
48613;SDS011;34408;51.426;5.444;2024-03-08T13:46:40;13.32;;;8.43;;
48613;SDS011;34408;51.426;5.444;2024-03-08T13:49:08;11.30;;;7.82;;
48613;SDS011;34408;51.426;5.444;2024-03-08T13:51:37;15.55;;;8.38;;
48613;SDS011;34408;51.426;5.444;2024-03-08T13:54:05;16.65;;;8.48;;
48613;SDS011;34408;51.426;5.444;2024-03-08T13:56:34;15.40;;;8.15;;
48613;SDS011;34408;51.426;5.444;2024-03-08T13:59:04;12.30;;;8.02;;
48613;SDS011;34408;51.426;5.444;2024-03-08T14:01:32;16.25;;;8.55;;
48613;SDS011;34408;51.426;5.444;2024-03-08T14:04:02;11.27;;;7.38;;
48613;SDS011;34408;51.426;5.444;2024-03-08T14:06:31;11.73;;;8.05;;
48613;SDS011;34408;51.426;5.444;2024-03-08T14:08:59;11.30;;;7.82;;
48613;SDS011;34408;51.426;5.444;2024-03-08T14:11:28;12.25;;;7.53;;
48613;SDS011;34408;51.426;5.444;2024-03-08T14:13:56;12.10;;;7.72;;
48613;SDS011;34408;51.426;5.444;2024-03-08T14:16:26;12.13;;;7.30;;
48613;SDS011;34408;51.426;5.444;2024-03-08T14:18:54;10.20;;;7.60;;
48613;SDS011;34408;51.426;5.444;2024-03-08T14:21:22;12.98;;;7.72;;
48613;SDS011;34408;51.426;5.444;2024-03-08T14:23:50;11.80;;;7.53;;
48613;SDS011;34408;51.426;5.444;2024-03-08T14:26:18;10.05;;;7.05;;
48613;SDS011;34408;51.426;5.444;2024-03-08T14:28:47;13.25;;;7.35;;
48613;SDS011;34408;51.426;5.444;2024-03-08T14:31:18;11.88;;;7.80;;
48613;SDS011;34408;51.426;5.444;2024-03-08T14:33:47;13.73;;;7.57;;
48613;SDS011;34408;51.426;5.444;2024-03-08T14:36:16;9.40;;;7.00;;